Time;durP1;ratioP1;P1;durP2;ratioP2;P2;SDS_P1;SDS_P2;PMS_P1;PMS_P2;Temp;Humidity;BMP_temperature;BMP_pressure;BME280_temperature;BME280_humidity;BME280_pressure;Samples;Min_cycle;Max_cycle;Signal;HPM_P1;HPM_P2
2022/03/09 00:01:14;;;;;;;18.67;7.17;;;1.80;98.40;;;;;;5073305;28;20325;-75
2022/03/09 00:03:40;;;;;;;15.03;6.30;;;1.60;98.20;;;;;;5072260;28;20179;-74
2022/03/09 00:06:06;;;;;;;14.90;6.23;;;1.60;98.30;;;;;;5072157;28;20178;-75
2022/03/09 00:08:32;;;;;;;17.03;7.00;;;1.60;99.10;;;;;;5071887;28;20568;-74
2022/03/09 00:10:58;;;;;;;17.73;7.30;;;1.70;98.50;;;;;;5073063;28;20177;-74
2022/03/09 00:13:24;;;;;;;21.57;7.27;;;1.70;97.10;;;;;;5071857;28;20180;-74
2022/03/09 00:15:49;;;;;;;14.80;7.00;;;1.60;97.20;;;;;;5072027;28;20268;-74
2022/03/09 00:18:15;;;;;;;14.47;6.83;;;1.60;96.50;;;;;;5071979;28;20224;-74
2022/03/09 00:20:41;;;;;;;14.63;7.17;;;1.70;95.90;;;;;;5070850;28;20180;-74
2022/03/09 00:23:06;;;;;;;16.20;6.23;;;1.70;95.20;;;;;;5071667;28;20545;-74
2022/03/09 00:25:32;;;;;;;12.53;6.37;;;1.80;95.20;;;;;;5071629;28;20172;-74
2022/03/09 00:27:57;;;;;;;15.73;7.80;;;1.80;94.50;;;;;;5071606;28;20196;-74
2022/03/09 00:30:24;;;;;;;14.47;6.87;;;1.80;95.10;;;;;;5071743;28;20176;-75
2022/03/09 00:32:50;;;;;;;20.30;8.13;;;1.70;96.60;;;;;;5072274;28;20169;-74
2022/03/09 00:35:15;;;;;;;18.80;8.33;;;1.70;96.40;;;;;;5071571;28;20263;-74
2022/03/09 00:37:41;;;;;;;17.13;7.60;;;1.80;96.50;;;;;;5072802;28;20194;-74
2022/03/09 00:40:07;;;;;;;16.43;7.30;;;1.70;96.20;;;;;;5071423;28;20176;-74
2022/03/09 00:42:37;;;;;;;13.93;6.83;;;1.70;94.90;;;;;;5071172;28;20627;-74
2022/03/09 00:45:04;;;;;;;14.50;7.20;;;1.60;94.80;;;;;;5071492;28;20165;-74
2022/03/09 00:47:30;;;;;;;14.57;6.67;;;1.60;95.10;;;;;;5071217;28;20171;-74
2022/03/09 00:49:56;;;;;;;16.53;7.27;;;1.50;96.40;;;;;;5071298;28;20176;-74
2022/03/09 00:52:22;;;;;;;14.50;7.27;;;1.40;96.50;;;;;;5071059;28;20177;-74
2022/03/09 00:54:47;;;;;;;17.90;7.43;;;1.30;97.60;;;;;;5071011;28;20259;-74
2022/03/09 00:57:14;;;;;;;16.00;7.80;;;1.20;97.80;;;;;;5071106;28;20181;-74
2022/03/09 00:59:39;;;;;;;18.10;7.00;;;1.30;97.40;;;;;;5071015;28;20179;-74
2022/03/09 01:02:05;;;;;;;17.77;7.20;;;1.40;99.20;;;;;;5070346;28;20209;-75
2022/03/09 01:04:34;;;;;;;16.63;7.47;;;1.30;98.90;;;;;;5070904;28;20180;-75
2022/03/09 01:07:04;;;;;;;21.30;8.43;;;1.30;99.90;;;;;;5070703;28;20172;-75
2022/03/09 01:09:30;;;;;;;18.53;7.70;;;1.20;99.90;;;;;;5070643;28;20199;-75
2022/03/09 01:11:57;;;;;;;18.77;7.57;;;1.20;99.90;;;;;;5070574;28;20235;-74
2022/03/09 01:14:23;;;;;;;15.37;7.33;;;1.00;99.90;;;;;;5070971;28;20178;-74
2022/03/09 01:16:48;;;;;;;14.50;6.53;;;1.10;99.20;;;;;;5070891;28;20648;-75
2022/03/09 01:19:14;;;;;;;18.03;6.80;;;1.10;98.30;;;;;;5070800;28;20214;-74
2022/03/09 01:21:40;;;;;;;18.80;7.77;;;1.10;97.60;;;;;;5070476;28;20198;-75
2022/03/09 01:24:06;;;;;;;17.13;6.97;;;1.20;97.00;;;;;;5070792;28;20175;-75
2022/03/09 01:26:32;;;;;;;20.57;6.73;;;1.20;96.60;;;;;;5070785;28;20176;-75
2022/03/09 01:28:58;;;;;;;18.13;7.10;;;1.20;98.90;;;;;;5070968;28;20198;-75
2022/03/09 01:31:24;;;;;;;15.80;7.17;;;1.10;98.40;;;;;;5070142;28;20174;-75
2022/03/09 01:33:49;;;;;;;17.30;6.90;;;1.00;99.60;;;;;;5070386;28;20221;-75
2022/03/09 01:36:15;;;;;;;16.27;6.90;;;1.10;99.10;;;;;;5070607;28;20214;-75
2022/03/09 01:38:41;;;;;;;15.03;7.10;;;0.90;99.00;;;;;;5070487;28;20663;-75
2022/03/09 01:41:07;;;;;;;19.03;7.20;;;1.00;98.40;;;;;;5070432;28;20206;-75
2022/03/09 01:43:34;;;;;;;14.27;6.67;;;0.90;98.50;;;;;;5054298;28;20281;-74
2022/03/09 01:45:59;;;;;;;14.97;6.90;;;0.90;97.30;;;;;;5070550;28;20215;-75
2022/03/09 01:48:25;;;;;;;17.60;7.00;;;1.00;97.20;;;;;;5070521;28;20588;-74
2022/03/09 01:50:52;;;;;;;12.87;6.30;;;1.10;96.50;;;;;;5070402;28;20632;-75
2022/03/09 01:53:18;;;;;;;13.27;5.90;;;1.10;96.60;;;;;;5070135;28;20200;-75
2022/03/09 01:55:45;;;;;;;16.77;6.57;;;0.90;96.90;;;;;;5070501;28;20214;-76
2022/03/09 01:58:10;;;;;;;14.70;7.30;;;0.70;97.60;;;;;;5070411;28;20233;-75
2022/03/09 02:00:36;;;;;;;14.73;6.43;;;0.60;98.30;;;;;;5070450;28;20176;-75
2022/03/09 02:03:02;;;;;;;16.57;7.00;;;0.80;98.00;;;;;;5070101;28;20214;-75
2022/03/09 02:05:28;;;;;;;15.47;7.17;;;0.90;97.20;;;;;;5070230;28;20217;-75
2022/03/09 02:10:39;;;;;;;18.63;6.37;;;0.90;98.50;;;;;;5071836;28;20194;-75
2022/03/09 02:13:04;;;;;;;13.43;6.67;;;0.70;97.60;;;;;;5070034;28;20206;-75
2022/03/09 02:15:30;;;;;;;21.20;7.10;;;0.70;98.10;;;;;;5070247;28;20643;-76
2022/03/09 02:17:59;;;;;;;16.47;6.97;;;0.60;98.10;;;;;;5070071;28;20721;-75
2022/03/09 02:20:25;;;;;;;18.00;6.70;;;0.50;99.20;;;;;;5070161;28;20179;-75
2022/03/09 02:22:53;;;;;;;15.57;7.63;;;0.50;99.90;;;;;;5069807;28;20206;-75
2022/03/09 02:25:19;;;;;;;13.53;6.73;;;0.60;99.00;;;;;;5070167;28;20695;-75
2022/03/09 02:27:45;;;;;;;15.20;7.07;;;0.60;98.60;;;;;;5069947;28;20681;-75
2022/03/09 02:30:17;;;;;;;14.53;6.63;;;0.60;98.40;;;;;;5070087;28;20165;-75
2022/03/09 02:32:44;;;;;;;23.63;7.23;;;0.60;98.10;;;;;;5069494;28;20172;-75
2022/03/09 02:35:12;;;;;;;16.97;7.47;;;0.50;98.40;;;;;;5070258;28;20542;-75
2022/03/09 02:37:41;;;;;;;20.37;7.70;;;0.50;99.20;;;;;;5070178;28;20560;-75
2022/03/09 02:40:08;;;;;;;17.57;7.43;;;0.70;99.20;;;;;;5070254;28;20532;-75
2022/03/09 02:42:34;;;;;;;20.43;6.77;;;0.80;98.20;;;;;;5069614;28;20560;-75
2022/03/09 02:45:00;;;;;;;16.83;7.30;;;0.70;98.30;;;;;;5071939;28;20256;-75
2022/03/09 02:47:25;;;;;;;15.77;7.03;;;0.60;98.40;;;;;;5073452;28;20666;-75
2022/03/09 02:49:51;;;;;;;15.70;7.27;;;0.40;98.80;;;;;;5074778;28;20170;-75
2022/03/09 02:52:17;;;;;;;13.40;6.77;;;0.50;97.90;;;;;;5073399;28;20169;-74
2022/03/09 02:54:42;;;;;;;17.40;7.03;;;0.50;97.40;;;;;;5073339;28;20240;-75
2022/03/09 02:57:08;;;;;;;18.67;7.40;;;0.50;97.70;;;;;;5074637;28;20684;-74
2022/03/09 02:59:35;;;;;;;14.83;6.57;;;0.50;97.10;;;;;;5073287;28;20201;-74
2022/03/09 03:02:01;;;;;;;15.53;6.50;;;0.30;98.90;;;;;;5073993;28;20197;-74
2022/03/09 03:04:27;;;;;;;16.87;7.27;;;0.40;98.50;;;;;;5072902;28;20605;-74
2022/03/09 03:06:55;;;;;;;15.50;6.83;;;0.50;98.10;;;;;;5072780;28;20261;-75
2022/03/09 03:09:21;;;;;;;18.43;7.07;;;0.40;98.70;;;;;;5072796;28;20194;-74
2022/03/09 03:11:47;;;;;;;18.83;7.17;;;0.50;99.00;;;;;;5072179;28;20228;-75
2022/03/09 03:14:12;;;;;;;18.77;7.07;;;0.50;99.10;;;;;;5072559;28;20187;-75
2022/03/09 03:16:38;;;;;;;18.77;7.73;;;0.30;99.90;;;;;;5072645;28;20182;-74
2022/03/09 03:19:04;;;;;;;15.07;6.60;;;0.30;98.60;;;;;;5072582;28;20200;-75
2022/03/09 03:21:29;;;;;;;19.90;7.10;;;0.20;99.00;;;;;;5072696;28;20192;-74
2022/03/09 03:23:55;;;;;;;17.30;7.90;;;0.10;99.90;;;;;;5072846;28;20253;-74
2022/03/09 03:26:21;;;;;;;17.17;7.83;;;0.20;99.20;;;;;;5072894;28;20169;-74
2022/03/09 03:28:46;;;;;;;15.03;7.03;;;0.40;99.50;;;;;;5072725;28;20192;-74
2022/03/09 03:31:12;;;;;;;14.80;7.07;;;0.40;99.90;;;;;;5072255;28;20648;-74
2022/03/09 03:33:41;;;;;;;17.33;7.87;;;0.20;99.90;;;;;;5072787;28;20172;-74
2022/03/09 03:36:06;;;;;;;17.27;7.13;;;0.00;99.90;;;;;;5072670;28;20260;-74
2022/03/09 03:38:32;;;;;;;19.73;7.63;;;0.00;99.10;;;;;;5072665;28;20349;-74
2022/03/09 03:40:57;;;;;;;19.03;8.03;;;0.00;98.50;;;;;;5072649;28;20240;-74
2022/03/09 03:43:23;;;;;;;24.53;7.70;;;0.10;99.20;;;;;;5072319;28;20193;-74
2022/03/09 03:45:49;;;;;;;21.10;7.20;;;0.20;98.90;;;;;;5072539;28;20674;-75
2022/03/09 03:48:14;;;;;;;18.13;7.47;;;0.10;99.00;;;;;;5072378;28;20198;-75
2022/03/09 03:50:40;;;;;;;15.70;7.00;;;0.20;98.90;;;;;;5072499;28;20169;-74
2022/03/09 03:53:06;;;;;;;15.27;7.10;;;0.10;99.00;;;;;;5072159;28;20177;-75
2022/03/09 03:55:31;;;;;;;20.27;8.17;;;0.00;99.80;;;;;;5072256;28;20642;-75
2022/03/09 03:57:57;;;;;;;12.63;6.30;;;-0.10;99.90;;;;;;5072131;28;20198;-74
2022/03/09 04:00:23;;;;;;;17.33;7.63;;;0.00;99.90;;;;;;5072332;28;20215;-75
2022/03/09 04:02:50;;;;;;;19.97;6.93;;;0.10;99.50;;;;;;5071970;28;20299;-74
2022/03/09 04:05:15;;;;;;;15.87;6.93;;;0.00;99.60;;;;;;5072050;28;20610;-74
2022/03/09 04:07:41;;;;;;;15.10;6.73;;;0.00;99.90;;;;;;5071700;28;20227;-75
2022/03/09 04:10:07;;;;;;;15.33;6.53;;;0.10;99.60;;;;;;5071563;28;20208;-74
2022/03/09 04:12:34;;;;;;;14.60;6.87;;;-0.20;99.90;;;;;;5071645;28;20177;-74
2022/03/09 04:14:59;;;;;;;13.27;6.70;;;-0.30;99.90;;;;;;5071918;28;20593;-74
2022/03/09 04:17:25;;;;;;;13.80;6.60;;;-0.30;99.60;;;;;;5071828;28;20219;-74
2022/03/09 04:19:51;;;;;;;14.20;7.03;;;-0.30;99.90;;;;;;5071866;28;20172;-74
2022/03/09 04:22:16;;;;;;;21.30;6.93;;;-0.10;99.80;;;;;;5071528;28;20213;-74
2022/03/09 04:24:42;;;;;;;15.20;6.47;;;-0.10;99.20;;;;;;5071714;28;20173;-74
2022/03/09 04:27:08;;;;;;;17.00;7.10;;;-0.10;99.50;;;;;;5071497;28;20192;-74
2022/03/09 04:29:33;;;;;;;21.77;7.03;;;-0.20;99.50;;;;;;5071581;28;20203;-74
2022/03/09 04:31:59;;;;;;;17.70;7.00;;;-0.30;99.90;;;;;;5071202;28;20182;-74
2022/03/09 04:34:25;;;;;;;16.57;6.90;;;-0.40;99.90;;;;;;5071506;28;20186;-74
2022/03/09 04:36:50;;;;;;;15.70;6.37;;;-0.40;99.70;;;;;;5071556;28;20631;-75
2022/03/09 04:39:16;;;;;;;15.00;6.77;;;-0.40;99.30;;;;;;5071339;28;20201;-74
2022/03/09 04:41:42;;;;;;;14.07;6.63;;;-0.40;98.40;;;;;;5071082;28;20200;-75
2022/03/09 04:44:08;;;;;;;16.30;6.57;;;-0.30;99.30;;;;;;5071316;28;20180;-75
2022/03/09 04:46:33;;;;;;;13.00;6.00;;;-0.30;98.50;;;;;;5071342;28;20363;-75
2022/03/09 04:48:59;;;;;;;14.53;6.60;;;-0.40;99.50;;;;;;5071264;28;20194;-75
2022/03/09 04:51:25;;;;;;;14.97;6.63;;;-0.50;99.20;;;;;;5071041;28;20185;-75
2022/03/09 04:53:50;;;;;;;16.70;6.53;;;-0.50;99.10;;;;;;5071089;28;20250;-75
2022/03/09 04:56:17;;;;;;;15.23;6.30;;;-0.50;99.50;;;;;;5071005;28;20670;-75
2022/03/09 04:58:43;;;;;;;21.27;7.37;;;-0.40;99.10;;;;;;5071379;28;20600;-74
2022/03/09 05:01:09;;;;;;;16.87;6.37;;;-0.30;99.20;;;;;;5070827;28;20198;-75
2022/03/09 05:03:34;;;;;;;17.53;6.93;;;-0.30;98.80;;;;;;5071052;28;20664;-74
2022/03/09 05:06:04;;;;;;;13.17;5.73;;;-0.40;99.90;;;;;;5070895;28;20180;-74
2022/03/09 05:08:30;;;;;;;14.77;6.93;;;-0.40;99.90;;;;;;5069454;28;20695;-74
2022/03/09 05:10:56;;;;;;;15.87;6.43;;;-0.40;99.90;;;;;;5071645;28;20169;-75
2022/03/09 05:13:21;;;;;;;18.47;6.57;;;-0.50;99.90;;;;;;5070779;28;20172;-74
2022/03/09 05:15:48;;;;;;;15.43;7.10;;;-0.30;99.90;;;;;;5070876;28;20179;-74
2022/03/09 05:18:13;;;;;;;17.03;6.77;;;-0.30;99.90;;;;;;5070739;28;20220;-74
2022/03/09 05:20:39;;;;;;;17.30;7.10;;;-0.40;99.90;;;;;;5070915;28;20227;-74
2022/03/09 05:23:05;;;;;;;23.23;7.23;;;-0.50;99.90;;;;;;5070518;28;20208;-74
2022/03/09 05:25:31;;;;;;;13.97;6.17;;;-0.60;99.90;;;;;;5071964;28;20160;-74
2022/03/09 05:27:59;;;;;;;15.77;7.03;;;-0.60;99.90;;;;;;5070652;28;20548;-74
2022/03/09 05:30:24;;;;;;;16.77;6.73;;;-0.60;99.90;;;;;;5070650;28;20173;-74
2022/03/09 05:32:50;;;;;;;16.13;7.43;;;-0.50;99.90;;;;;;5070072;28;20201;-74
2022/03/09 05:35:16;;;;;;;15.20;6.80;;;-0.50;99.90;;;;;;5070557;28;20180;-74
2022/03/09 05:37:43;;;;;;;21.00;7.47;;;-0.70;99.90;;;;;;5070577;28;20207;-74
2022/03/09 05:40:09;;;;;;;13.77;6.70;;;-0.70;99.90;;;;;;5070478;28;20180;-74
2022/03/09 05:42:36;;;;;;;14.23;7.13;;;-0.80;99.90;;;;;;5070205;28;20208;-74
2022/03/09 05:45:02;;;;;;;13.67;6.17;;;-0.80;99.90;;;;;;5070551;28;20232;-74
2022/03/09 05:47:28;;;;;;;16.53;6.43;;;-0.90;99.90;;;;;;5071645;28;20648;-74
2022/03/09 05:49:54;;;;;;;21.07;7.23;;;-0.80;99.90;;;;;;5070435;28;20169;-74
2022/03/09 05:52:19;;;;;;;17.43;6.57;;;-0.70;99.90;;;;;;5070309;28;20188;-74
2022/03/09 05:54:45;;;;;;;20.37;7.80;;;-0.60;99.90;;;;;;5070178;28;20192;-74
2022/03/09 05:57:21;;;;;;;17.73;7.17;;;-0.60;99.90;;;;;;5070351;28;20180;-74
2022/03/09 05:59:47;;;;;;;17.50;7.23;;;-0.50;99.90;;;;;;5070402;28;20175;-74
2022/03/09 06:02:12;;;;;;;18.07;7.80;;;-0.50;99.90;;;;;;5069981;28;20654;-74
2022/03/09 06:04:38;;;;;;;18.50;7.07;;;-0.40;99.90;;;;;;5070207;28;20176;-75
2022/03/09 06:07:07;;;;;;;17.03;7.00;;;-0.30;99.90;;;;;;5069724;28;20176;-74
2022/03/09 06:09:33;;;;;;;18.17;7.27;;;-0.30;99.90;;;;;;5070332;28;20196;-74
2022/03/09 06:11:58;;;;;;;18.83;7.17;;;-0.20;99.90;;;;;;5069565;28;20657;-74
2022/03/09 06:14:24;;;;;;;15.57;6.87;;;-0.40;99.90;;;;;;5070192;28;20176;-74
2022/03/09 06:16:50;;;;;;;18.93;7.23;;;-0.60;99.90;;;;;;5070186;28;20236;-74
2022/03/09 06:19:16;;;;;;;14.97;6.90;;;-0.60;99.90;;;;;;5072649;28;20204;-74
2022/03/09 06:21:43;;;;;;;18.93;6.70;;;-0.50;99.90;;;;;;5073730;28;20200;-75
2022/03/09 06:24:09;;;;;;;17.50;6.93;;;-0.40;99.90;;;;;;5074054;28;20227;-74
2022/03/09 06:26:38;;;;;;;16.40;7.90;;;-0.40;99.90;;;;;;5075292;28;20219;-74
2022/03/09 06:29:05;;;;;;;19.43;7.17;;;-0.40;99.90;;;;;;5073834;28;20192;-74
2022/03/09 06:31:32;;;;;;;17.97;7.13;;;-0.40;99.90;;;;;;5073337;28;20204;-74
2022/03/09 06:33:57;;;;;;;16.27;7.37;;;-0.30;99.90;;;;;;5073921;28;20178;-74
2022/03/09 06:36:23;;;;;;;18.53;6.80;;;-0.10;99.90;;;;;;5073699;28;20185;-74
2022/03/09 06:38:49;;;;;;;18.23;7.53;;;0.00;99.90;;;;;;5073765;28;20780;-74
2022/03/09 06:41:14;;;;;;;18.40;7.57;;;0.10;99.90;;;;;;5073392;28;20200;-74
2022/03/09 06:43:41;;;;;;;18.37;7.17;;;0.30;99.90;;;;;;5073715;28;20169;-74
2022/03/09 06:46:07;;;;;;;15.77;6.57;;;0.50;99.20;;;;;;5073567;28;20272;-74
2022/03/09 06:48:32;;;;;;;26.90;6.73;;;0.60;99.40;;;;;;5073496;28;20283;-74
2022/03/09 06:50:58;;;;;;;16.27;6.77;;;0.90;98.40;;;;;;5073379;28;20176;-74
2022/03/09 06:53:23;;;;;;;21.57;7.07;;;0.70;99.50;;;;;;5073199;28;20192;-74
2022/03/09 06:55:49;;;;;;;14.50;6.53;;;0.80;99.00;;;;;;5073514;28;20171;-74
2022/03/09 06:58:15;;;;;;;20.03;7.03;;;1.00;99.40;;;;;;5073331;28;20196;-74
2022/03/09 07:00:41;;;;;;;17.80;6.53;;;1.10;98.60;;;;;;5073333;28;20172;-74
2022/03/09 07:03:07;;;;;;;13.30;6.50;;;1.50;98.10;;;;;;5073065;28;20215;-74
2022/03/09 07:05:32;;;;;;;14.70;6.27;;;2.10;96.40;;;;;;5073193;28;20260;-75
2022/03/09 07:07:59;;;;;;;21.73;6.87;;;2.60;95.00;;;;;;5072727;28;20197;-74
2022/03/09 07:10:25;;;;;;;15.00;6.90;;;3.20;93.40;;;;;;5072997;28;20243;-74
2022/03/09 07:12:51;;;;;;;16.80;6.90;;;3.30;93.00;;;;;;5072936;28;20204;-74
2022/03/09 07:15:17;;;;;;;20.43;7.53;;;3.50;92.50;;;;;;5073056;28;20546;-74
2022/03/09 07:17:44;;;;;;;20.10;7.03;;;4.10;91.70;;;;;;5073117;28;20203;-73
2022/03/09 07:20:11;;;;;;;16.73;7.03;;;3.70;92.30;;;;;;5073022;28;20552;-76
2022/03/09 07:22:37;;;;;;;15.57;6.90;;;4.20;91.10;;;;;;5073575;28;20218;-77
2022/03/09 07:25:03;;;;;;;13.33;7.53;;;6.50;86.70;;;;;;5073572;28;20478;-78
2022/03/09 07:27:29;;;;;;;16.70;6.90;;;6.70;84.20;;;;;;5075576;28;20187;-79
2022/03/09 07:29:54;;;;;;;15.60;6.90;;;6.90;82.90;;;;;;5073001;28;20382;-79
2022/03/09 07:32:20;;;;;;;15.03;6.63;;;6.90;78.80;;;;;;5072932;28;20192;-79
2022/03/09 07:34:46;;;;;;;12.27;6.30;;;7.80;80.00;;;;;;5073716;28;20177;-79
2022/03/09 07:37:12;;;;;;;15.07;5.87;;;8.70;74.20;;;;;;5073640;28;20177;-79
2022/03/09 07:39:38;;;;;;;12.37;6.27;;;8.90;72.10;;;;;;5074615;28;20204;-79
2022/03/09 07:42:04;;;;;;;13.63;6.17;;;8.90;71.20;;;;;;5075264;28;20203;-80
2022/03/09 07:44:29;;;;;;;11.27;6.30;;;8.30;75.60;;;;;;5076935;28;20177;-80
2022/03/09 07:46:55;;;;;;;13.00;6.00;;;9.60;69.80;;;;;;5074985;28;20263;-80
2022/03/09 07:49:22;;;;;;;16.10;7.30;;;11.10;67.40;;;;;;5074551;28;20561;-79
2022/03/09 07:51:48;;;;;;;12.53;5.83;;;11.50;64.50;;;;;;5075303;28;20181;-80
2022/03/09 07:54:14;;;;;;;14.93;6.80;;;11.10;65.50;;;;;;5075257;28;20216;-80
2022/03/09 07:56:40;;;;;;;10.07;6.70;;;11.40;63.00;;;;;;5075683;28;20192;-80
2022/03/09 07:59:06;;;;;;;19.57;7.33;;;11.50;64.90;;;;;;5075668;28;20208;-80
2022/03/09 08:01:33;;;;;;;12.77;6.90;;;11.50;63.60;;;;;;5074065;28;20200;-81
2022/03/09 08:03:59;;;;;;;11.30;6.23;;;11.70;62.80;;;;;;5073777;28;20176;-80
2022/03/09 08:06:24;;;;;;;11.40;6.60;;;10.70;67.20;;;;;;5073728;28;20177;-80
2022/03/09 08:08:50;;;;;;;9.60;6.43;;;10.40;65.70;;;;;;5073330;28;20193;-81
2022/03/09 08:11:16;;;;;;;12.07;6.20;;;11.50;61.70;;;;;;5073019;28;20230;-81
2022/03/09 08:13:42;;;;;;;13.63;6.15;;;12.20;62.30;;;;;;5073868;28;20175;-81
2022/03/09 08:16:08;;;;;;;15.05;6.53;;;11.00;64.00;;;;;;5073364;28;20173;-81
2022/03/09 08:18:34;;;;;;;12.88;6.38;;;9.50;65.80;;;;;;5073023;28;20193;-81
2022/03/09 08:21:00;;;;;;;9.10;6.15;;;9.20;70.10;;;;;;5073204;28;20314;-82
2022/03/09 08:23:26;;;;;;;11.85;6.50;;;9.80;69.40;;;;;;5073817;28;20823;-82
2022/03/09 08:25:52;;;;;;;8.88;6.10;;;9.70;69.50;;;;;;5074293;28;20175;-82
2022/03/09 08:28:18;;;;;;;9.07;5.57;;;9.60;67.30;;;;;;5073953;28;20596;-82
2022/03/09 08:30:44;;;;;;;7.85;5.45;;;9.70;67.80;;;;;;5073685;28;20188;-82
2022/03/09 08:33:10;;;;;;;10.68;5.60;;;10.20;66.10;;;;;;5072642;28;20755;-82
2022/03/09 08:35:36;;;;;;;14.33;6.80;;;11.80;64.40;;;;;;5073417;28;20176;-82
2022/03/09 08:38:02;;;;;;;12.00;5.60;;;11.60;61.90;;;;;;5072335;28;20215;-81
2022/03/09 08:40:28;;;;;;;11.23;6.13;;;11.40;63.10;;;;;;5073545;28;20176;-81
2022/03/09 08:42:54;;;;;;;8.13;5.70;;;11.70;62.80;;;;;;5072417;28;20192;-81
2022/03/09 08:45:20;;;;;;;7.27;5.57;;;11.30;63.30;;;;;;5074368;28;20241;-81
2022/03/09 08:47:46;;;;;;;8.60;5.83;;;10.70;65.60;;;;;;5074523;28;20684;-81
2022/03/09 08:50:11;;;;;;;14.77;5.90;;;10.30;68.10;;;;;;5074728;28;20172;-82
2022/03/09 08:52:37;;;;;;;10.27;5.77;;;10.50;66.30;;;;;;5074422;28;20172;-82
2022/03/09 08:55:04;;;;;;;9.90;6.00;;;10.20;65.20;;;;;;5075792;28;20703;-82
2022/03/09 08:57:29;;;;;;;12.47;5.63;;;10.60;67.60;;;;;;5076853;28;20169;-79
2022/03/09 08:59:57;;;;;;;9.33;5.70;;;10.70;66.20;;;;;;5075506;28;20245;-82
2022/03/09 09:02:25;;;;;;;12.33;5.90;;;11.60;65.70;;;;;;5074185;28;20196;-82
2022/03/09 09:04:51;;;;;;;11.67;6.00;;;11.10;66.10;;;;;;5074313;28;20551;-81
2022/03/09 09:07:16;;;;;;;10.40;5.70;;;11.00;64.90;;;;;;5074377;28;20165;-82
2022/03/09 09:09:42;;;;;;;9.13;5.57;;;11.40;66.30;;;;;;5074208;28;20176;-79
2022/03/09 09:12:08;;;;;;;10.60;5.40;;;11.10;62.50;;;;;;5073921;28;20177;-78
2022/03/09 09:14:34;;;;;;;8.50;5.47;;;10.70;64.50;;;;;;5074134;28;20622;-82
2022/03/09 09:16:59;;;;;;;9.10;5.33;;;11.50;63.80;;;;;;5077112;28;20176;-82
2022/03/09 09:19:25;;;;;;;10.40;5.17;;;11.40;61.30;;;;;;5076245;28;20238;-80
2022/03/09 09:21:51;;;;;;;8.63;5.27;;;11.00;63.60;;;;;;5077150;28;20211;-82
2022/03/09 09:24:17;;;;;;;9.33;5.50;;;11.30;63.60;;;;;;5076076;28;20175;-83
2022/03/09 09:26:42;;;;;;;10.83;4.90;;;11.70;62.50;;;;;;5074865;28;20168;-82
2022/03/09 09:29:09;;;;;;;8.77;5.17;;;11.20;61.80;;;;;;5075308;28;20188;-82
2022/03/09 09:31:35;;;;;;;8.33;4.97;;;11.50;61.10;;;;;;5075845;28;20203;-83
2022/03/09 09:34:02;;;;;;;13.57;5.70;;;11.00;60.90;;;;;;5076644;28;20203;-83
2022/03/09 09:36:28;;;;;;;10.43;5.93;;;10.70;61.60;;;;;;5075119;28;20177;-82
2022/03/09 09:38:54;;;;;;;10.60;5.93;;;11.60;61.20;;;;;;5075312;28;20193;-82
2022/03/09 09:41:24;;;;;;;9.30;5.60;;;11.70;62.50;;;;;;5074045;28;20215;-82
2022/03/09 09:43:50;;;;;;;13.63;5.80;;;12.10;60.40;;;;;;5075232;28;20198;-82
2022/03/09 09:46:16;;;;;;;10.17;6.30;;;12.50;62.20;;;;;;5078653;28;20640;-82
2022/03/09 09:48:45;;;;;;;12.50;5.47;;;12.50;59.10;;;;;;5082027;28;20203;-81
2022/03/09 09:51:12;;;;;;;12.43;6.07;;;11.90;60.30;;;;;;5076776;28;20172;-82
2022/03/09 09:53:42;;;;;;;12.23;5.77;;;12.00;60.70;;;;;;5077031;28;20199;-81
2022/03/09 09:56:08;;;;;;;8.57;5.87;;;12.00;60.80;;;;;;5077616;28;20165;-81
2022/03/09 09:58:36;;;;;;;8.90;5.90;;;11.70;60.60;;;;;;5075465;28;20193;-81
2022/03/09 10:01:02;;;;;;;10.10;5.67;;;12.00;59.20;;;;;;5075070;28;20234;-81
2022/03/09 10:03:27;;;;;;;10.13;5.97;;;12.00;58.70;;;;;;5075920;28;20217;-81
2022/03/09 10:05:53;;;;;;;10.23;6.23;;;11.90;59.90;;;;;;5073836;28;20712;-81
2022/03/09 10:08:19;;;;;;;11.63;6.43;;;12.00;58.40;;;;;;5073209;28;20238;-81
2022/03/09 10:10:59;;;;;;;13.67;7.63;;;11.70;59.40;;;;;;5072674;28;20241;-81
2022/03/09 10:13:26;;;;;;;13.23;6.63;;;12.30;58.30;;;;;;5073813;28;20663;-81
2022/03/09 10:16:16;;;;;;;12.00;5.60;;;11.70;57.20;;;;;;5073901;28;20169;-81
2022/03/09 10:18:54;;;;;;;13.43;5.87;;;12.20;57.80;;;;;;5073431;28;20195;-81
2022/03/09 10:21:26;;;;;;;16.17;5.53;;;12.30;56.30;;;;;;5074000;28;20194;-81
2022/03/09 10:24:01;;;;;;;9.93;5.33;;;11.80;56.40;;;;;;5073579;28;20207;-81
2022/03/09 10:26:47;;;;;;;8.90;4.83;;;12.00;55.60;;;;;;5074307;28;20524;-81
2022/03/09 10:29:15;;;;;;;8.30;4.63;;;11.90;56.30;;;;;;5073476;28;20200;-81
2022/03/09 10:31:43;;;;;;;9.80;4.73;;;11.90;57.60;;;;;;5072281;28;20179;-81
2022/03/09 10:34:19;;;;;;;11.73;5.90;;;12.70;57.90;;;;;;5072685;28;20187;-81
2022/03/09 10:37:00;;;;;;;9.83;5.60;;;12.80;57.90;;;;;;5073934;28;20164;-81
2022/03/09 10:39:34;;;;;;;12.57;5.23;;;12.50;57.50;;;;;;5075329;28;20245;-81
2022/03/09 10:42:03;;;;;;;7.30;5.00;;;11.90;56.40;;;;;;5074006;28;20203;-82
2022/03/09 10:44:49;;;;;;;9.63;5.37;;;12.40;56.60;;;;;;5077233;28;20175;-81
2022/03/09 10:47:39;;;;;;;10.47;5.67;;;13.00;55.90;;;;;;5072850;28;20184;-81
2022/03/09 10:50:16;;;;;;;10.87;6.37;;;13.20;56.30;;;;;;5075005;28;20192;-81
2022/03/09 10:52:43;;;;;;;12.23;5.73;;;12.60;55.00;;;;;;5076476;28;20537;-81
2022/03/09 10:55:38;;;;;;;9.40;5.83;;;12.30;55.80;;;;;;5074934;28;20192;-81
2022/03/09 10:58:17;;;;;;;12.97;5.63;;;12.60;56.20;;;;;;5066190;28;20200;-82
2022/03/09 11:00:45;;;;;;;10.90;5.67;;;12.50;57.20;;;;;;5075758;28;20533;-80
2022/03/09 11:03:15;;;;;;;10.17;5.97;;;12.60;55.50;;;;;;5075242;28;20200;-81
2022/03/09 11:05:48;;;;;;;10.07;5.30;;;12.60;56.10;;;;;;5076303;28;20172;-81
2022/03/09 11:08:15;;;;;;;9.90;5.30;;;13.30;56.80;;;;;;5079052;28;20652;-81
2022/03/09 11:10:44;;;;;;;10.40;6.00;;;13.30;55.50;;;;;;5081844;28;20298;-81
2022/03/09 11:13:10;;;;;;;9.83;5.60;;;12.90;54.50;;;;;;5090295;28;20177;-81
2022/03/09 11:15:36;;;;;;;13.37;5.73;;;13.20;56.50;;;;;;5082002;28;20554;-81
2022/03/09 11:18:02;;;;;;;10.43;6.13;;;13.00;55.40;;;;;;5078734;28;20196;-83
2022/03/09 11:20:27;;;;;;;12.20;6.30;;;13.00;55.20;;;;;;5078669;28;20568;-82
2022/03/09 11:22:53;;;;;;;14.67;5.90;;;13.20;55.10;;;;;;5075523;28;20204;-83
2022/03/09 11:25:23;;;;;;;10.07;5.60;;;13.40;55.00;;;;;;5075503;28;20204;-82
2022/03/09 11:27:51;;;;;;;12.60;5.73;;;13.60;54.80;;;;;;5076400;28;20322;-81
2022/03/09 11:30:28;;;;;;;9.67;5.57;;;13.30;54.40;;;;;;5075406;28;20173;-81
2022/03/09 11:32:55;;;;;;;7.77;5.53;;;13.60;55.70;;;;;;5074864;28;20254;-81
2022/03/09 11:35:33;;;;;;;12.13;5.30;;;13.60;55.10;;;;;;5070841;28;20212;-81
2022/03/09 11:37:59;;;;;;;11.13;5.57;;;13.40;54.60;;;;;;5078573;28;20295;-81
2022/03/09 11:40:25;;;;;;;10.60;6.10;;;13.80;55.50;;;;;;5077363;28;20325;-82
2022/03/09 11:42:50;;;;;;;9.70;5.73;;;14.20;55.70;;;;;;5078247;28;20197;-81
2022/03/09 11:45:22;;;;;;;8.50;5.43;;;14.80;53.30;;;;;;5081685;28;20241;-81
2022/03/09 11:47:56;;;;;;;9.37;5.90;;;15.20;52.80;;;;;;5080960;28;20283;-80
2022/03/09 11:50:22;;;;;;;8.57;5.70;;;15.30;52.00;;;;;;5080872;28;20165;-80
2022/03/09 11:53:00;;;;;;;8.50;5.67;;;14.70;52.80;;;;;;5075172;28;20556;-81
2022/03/09 11:55:26;;;;;;;9.33;5.83;;;13.90;52.60;;;;;;5075680;28;20600;-81
2022/03/09 11:57:51;;;;;;;8.87;5.53;;;13.70;54.70;;;;;;5075027;28;20189;-81
2022/03/09 12:00:21;;;;;;;9.27;5.40;;;13.90;54.50;;;;;;5085806;28;20244;-80
2022/03/09 12:02:51;;;;;;;10.03;6.10;;;13.80;53.80;;;;;;5085702;28;20212;-80
2022/03/09 12:05:29;;;;;;;9.40;5.80;;;13.80;53.50;;;;;;5085546;28;20169;-83
2022/03/09 12:07:55;;;;;;;9.63;5.37;;;14.10;53.90;;;;;;5089027;28;20188;-83
2022/03/09 12:10:40;;;;;;;9.27;5.67;;;14.20;53.10;;;;;;5086888;28;20172;-84
2022/03/09 12:13:09;;;;;;;8.30;5.43;;;14.30;53.20;;;;;;5090871;28;20172;-82
2022/03/09 12:16:01;;;;;;;8.20;5.40;;;14.30;53.00;;;;;;5092226;28;20244;-82
2022/03/09 12:18:40;;;;;;;8.03;5.30;;;14.80;51.70;;;;;;5083132;28;20204;-82
2022/03/09 12:21:08;;;;;;;8.80;5.57;;;14.40;51.50;;;;;;5075807;28;20219;-82
2022/03/09 12:23:35;;;;;;;9.03;5.70;;;14.30;52.10;;;;;;5080710;28;20196;-83
2022/03/09 12:26:01;;;;;;;8.90;5.13;;;14.60;51.40;;;;;;5078084;28;20169;-84
2022/03/09 12:28:34;;;;;;;8.40;5.17;;;14.30;51.30;;;;;;5073503;28;20230;-84
2022/03/09 12:31:02;;;;;;;8.80;5.20;;;14.00;51.80;;;;;;5076082;28;20169;-84
2022/03/09 12:33:35;;;;;;;7.87;4.97;;;14.20;51.50;;;;;;5077886;28;20652;-81
2022/03/09 12:36:07;;;;;;;9.20;5.30;;;14.40;51.40;;;;;;5074714;28;20549;-81
2022/03/09 12:38:40;;;;;;;9.77;5.50;;;14.10;50.30;;;;;;5075599;28;20189;-80
2022/03/09 12:41:29;;;;;;;14.23;5.77;;;14.20;52.50;;;;;;5074340;28;20222;-82
2022/03/09 12:43:59;;;;;;;11.90;5.60;;;13.70;50.40;;;;;;5068397;28;20176;-81
2022/03/09 12:46:27;;;;;;;7.77;5.03;;;13.90;51.20;;;;;;5073525;28;20182;-80